sensor_id;sensor_type;location;lat;lon;timestamp;pressure;altitude;pressure_sealevel;temperature;humidity
52693;BME280;68218;51.012;-1.648;2023-03-14T00:00:36;97835.56;;;8.82;100.00
52693;BME280;68218;51.012;-1.648;2023-03-14T00:03:02;97849.28;;;8.80;100.00
52693;BME280;68218;51.012;-1.648;2023-03-14T00:05:27;97853.88;;;8.80;100.00
52693;BME280;68218;51.012;-1.648;2023-03-14T00:07:52;97857.06;;;8.82;100.00
52693;BME280;68218;51.012;-1.648;2023-03-14T00:10:18;97864.34;;;8.81;100.00
52693;BME280;68218;51.012;-1.648;2023-03-14T00:12:43;97874.00;;;8.83;100.00
52693;BME280;68218;51.012;-1.648;2023-03-14T00:15:10;97885.34;;;8.79;100.00
52693;BME280;68218;51.012;-1.648;2023-03-14T00:17:36;97900.50;;;8.75;100.00
52693;BME280;68218;51.012;-1.648;2023-03-14T00:20:03;97934.94;;;8.28;98.46
52693;BME280;68218;51.012;-1.648;2023-03-14T00:22:34;97952.09;;;8.04;95.85
52693;BME280;68218;51.012;-1.648;2023-03-14T00:24:59;97944.78;;;7.82;95.71
52693;BME280;68218;51.012;-1.648;2023-03-14T00:27:25;97959.63;;;7.66;95.67
52693;BME280;68218;51.012;-1.648;2023-03-14T00:29:51;97963.72;;;7.49;92.97
52693;BME280;68218;51.012;-1.648;2023-03-14T00:32:16;97973.31;;;7.37;94.09
52693;BME280;68218;51.012;-1.648;2023-03-14T00:34:41;97984.25;;;7.26;92.90
52693;BME280;68218;51.012;-1.648;2023-03-14T00:37:07;97988.91;;;7.21;93.91
52693;BME280;68218;51.012;-1.648;2023-03-14T00:39:32;98016.09;;;7.14;93.79
52693;BME280;68218;51.012;-1.648;2023-03-14T00:41:57;98015.69;;;7.07;95.20
52693;BME280;68218;51.012;-1.648;2023-03-14T00:44:23;98018.47;;;7.02;94.85
52693;BME280;68218;51.012;-1.648;2023-03-14T00:46:48;98026.78;;;7.00;97.20
52693;BME280;68218;51.012;-1.648;2023-03-14T00:49:14;98043.25;;;6.93;97.68
52693;BME280;68218;51.012;-1.648;2023-03-14T00:51:39;98058.41;;;6.84;95.02
52693;BME280;68218;51.012;-1.648;2023-03-14T00:54:04;98053.13;;;6.79;95.47
52693;BME280;68218;51.012;-1.648;2023-03-14T00:56:30;98082.59;;;6.79;96.83
52693;BME280;68218;51.012;-1.648;2023-03-14T00:58:56;98077.59;;;6.72;96.01
52693;BME280;68218;51.012;-1.648;2023-03-14T01:01:21;98090.78;;;6.69;96.47
52693;BME280;68218;51.012;-1.648;2023-03-14T01:03:47;98103.13;;;6.65;95.74
52693;BME280;68218;51.012;-1.648;2023-03-14T01:06:18;98108.56;;;6.60;93.40
52693;BME280;68218;51.012;-1.648;2023-03-14T01:08:44;98122.63;;;6.51;92.79
52693;BME280;68218;51.012;-1.648;2023-03-14T01:11:11;98130.06;;;6.54;93.36
52693;BME280;68218;51.012;-1.648;2023-03-14T01:13:37;98137.31;;;6.54;94.05
52693;BME280;68218;51.012;-1.648;2023-03-14T01:16:03;98148.63;;;6.46;92.72
52693;BME280;68218;51.012;-1.648;2023-03-14T01:18:30;98159.41;;;6.41;92.75
52693;BME280;68218;51.012;-1.648;2023-03-14T01:20:56;98172.97;;;6.25;91.46
52693;BME280;68218;51.012;-1.648;2023-03-14T01:23:21;98184.06;;;6.13;93.63
52693;BME280;68218;51.012;-1.648;2023-03-14T01:25:47;98195.41;;;6.05;92.40
52693;BME280;68218;51.012;-1.648;2023-03-14T01:28:12;98210.00;;;5.89;91.98
52693;BME280;68218;51.012;-1.648;2023-03-14T01:30:38;98221.34;;;5.75;90.67
52693;BME280;68218;51.012;-1.648;2023-03-14T01:33:03;98234.78;;;5.65;92.11
52693;BME280;68218;51.012;-1.648;2023-03-14T01:35:28;98241.81;;;5.56;89.37
52693;BME280;68218;51.012;-1.648;2023-03-14T01:37:54;98253.31;;;5.56;90.26
52693;BME280;68218;51.012;-1.648;2023-03-14T01:40:19;98263.00;;;5.47;89.95
52693;BME280;68218;51.012;-1.648;2023-03-14T01:42:57;98274.53;;;5.42;89.43
52693;BME280;68218;51.012;-1.648;2023-03-14T01:48:28;98300.81;;;5.25;90.52
52693;BME280;68218;51.012;-1.648;2023-03-14T01:50:57;98312.88;;;5.12;90.63
52693;BME280;68218;51.012;-1.648;2023-03-14T01:53:23;98315.34;;;5.03;89.01
52693;BME280;68218;51.012;-1.648;2023-03-14T01:55:50;98322.28;;;5.04;88.90
52693;BME280;68218;51.012;-1.648;2023-03-14T01:58:18;98333.47;;;5.12;85.95
52693;BME280;68218;51.012;-1.648;2023-03-14T02:00:45;98342.34;;;4.97;86.15
52693;BME280;68218;51.012;-1.648;2023-03-14T02:03:12;98364.81;;;4.91;85.38
52693;BME280;68218;51.012;-1.648;2023-03-14T02:05:40;98361.88;;;4.87;85.71
52693;BME280;68218;51.012;-1.648;2023-03-14T02:08:09;98375.78;;;4.84;83.88
52693;BME280;68218;51.012;-1.648;2023-03-14T02:10:39;98393.16;;;4.71;85.34
52693;BME280;68218;51.012;-1.648;2023-03-14T02:13:06;98390.22;;;4.62;85.19
52693;BME280;68218;51.012;-1.648;2023-03-14T02:15:32;98398.78;;;4.64;84.17
52693;BME280;68218;51.012;-1.648;2023-03-14T02:17:58;98405.97;;;4.64;82.11
52693;BME280;68218;51.012;-1.648;2023-03-14T02:22:50;98425.75;;;4.58;81.29
52693;BME280;68218;51.012;-1.648;2023-03-14T02:28:06;98438.53;;;4.35;85.24
52693;BME280;68218;51.012;-1.648;2023-03-14T02:30:32;98445.50;;;4.26;85.00
52693;BME280;68218;51.012;-1.648;2023-03-14T02:33:04;98456.44;;;4.29;84.53
52693;BME280;68218;51.012;-1.648;2023-03-14T02:38:38;98468.44;;;4.27;85.83
52693;BME280;68218;51.012;-1.648;2023-03-14T02:41:07;98482.03;;;4.15;85.23
52693;BME280;68218;51.012;-1.648;2023-03-14T02:43:32;98490.56;;;4.22;85.11
52693;BME280;68218;51.012;-1.648;2023-03-14T02:45:58;98498.31;;;4.24;83.39
52693;BME280;68218;51.012;-1.648;2023-03-14T02:48:31;98503.66;;;4.19;83.44
52693;BME280;68218;51.012;-1.648;2023-03-14T02:51:00;98531.09;;;4.09;85.06
52693;BME280;68218;51.012;-1.648;2023-03-14T02:53:34;98528.41;;;4.04;84.51
52693;BME280;68218;51.012;-1.648;2023-03-14T02:56:00;98535.31;;;3.94;84.22
52693;BME280;68218;51.012;-1.648;2023-03-14T02:58:26;98541.16;;;3.91;86.61
52693;BME280;68218;51.012;-1.648;2023-03-14T03:00:52;98551.53;;;3.83;85.77
52693;BME280;68218;51.012;-1.648;2023-03-14T03:03:17;98553.69;;;3.86;84.13
52693;BME280;68218;51.012;-1.648;2023-03-14T03:05:43;98559.75;;;3.76;87.22
52693;BME280;68218;51.012;-1.648;2023-03-14T03:08:09;98561.88;;;3.74;85.33
52693;BME280;68218;51.012;-1.648;2023-03-14T03:10:35;98568.56;;;3.77;85.68
52693;BME280;68218;51.012;-1.648;2023-03-14T03:13:01;98585.03;;;3.68;86.85
52693;BME280;68218;51.012;-1.648;2023-03-14T03:15:26;98581.53;;;3.63;85.58
52693;BME280;68218;51.012;-1.648;2023-03-14T03:17:52;98577.56;;;3.65;87.13
52693;BME280;68218;51.012;-1.648;2023-03-14T03:20:17;98590.63;;;3.62;86.66
52693;BME280;68218;51.012;-1.648;2023-03-14T03:22:42;98593.53;;;3.60;87.18
52693;BME280;68218;51.012;-1.648;2023-03-14T03:25:09;98602.31;;;3.55;87.83
52693;BME280;68218;51.012;-1.648;2023-03-14T03:27:36;98598.88;;;3.60;87.30
52693;BME280;68218;51.012;-1.648;2023-03-14T03:30:02;98611.38;;;3.60;87.32
52693;BME280;68218;51.012;-1.648;2023-03-14T03:32:28;98614.28;;;3.58;85.71
52693;BME280;68218;51.012;-1.648;2023-03-14T03:34:53;98621.25;;;3.59;86.69
52693;BME280;68218;51.012;-1.648;2023-03-14T03:37:19;98628.16;;;3.55;85.85
52693;BME280;68218;51.012;-1.648;2023-03-14T03:39:44;98629.41;;;3.47;85.97
52693;BME280;68218;51.012;-1.648;2023-03-14T03:42:09;98635.28;;;3.49;86.24
52693;BME280;68218;51.012;-1.648;2023-03-14T03:44:35;98650.69;;;3.42;86.16
52693;BME280;68218;51.012;-1.648;2023-03-14T03:47:00;98646.13;;;3.37;88.05
52693;BME280;68218;51.012;-1.648;2023-03-14T03:49:30;98657.06;;;3.36;85.84
52693;BME280;68218;51.012;-1.648;2023-03-14T03:51:56;98662.34;;;3.31;86.26
52693;BME280;68218;51.012;-1.648;2023-03-14T03:54:21;98668.72;;;3.30;87.16
52693;BME280;68218;51.012;-1.648;2023-03-14T03:56:47;98671.09;;;3.26;85.91
52693;BME280;68218;51.012;-1.648;2023-03-14T03:59:12;98673.81;;;3.31;85.83
52693;BME280;68218;51.012;-1.648;2023-03-14T04:01:37;98666.41;;;3.38;84.80
52693;BME280;68218;51.012;-1.648;2023-03-14T04:04:03;98690.91;;;3.41;86.77
52693;BME280;68218;51.012;-1.648;2023-03-14T04:06:28;98698.66;;;3.42;86.82
52693;BME280;68218;51.012;-1.648;2023-03-14T04:08:54;98701.91;;;3.49;87.29
52693;BME280;68218;51.012;-1.648;2023-03-14T04:11:19;98704.88;;;3.53;86.79
52693;BME280;68218;51.012;-1.648;2023-03-14T04:13:45;98700.97;;;3.61;87.58
52693;BME280;68218;51.012;-1.648;2023-03-14T04:16:17;98710.91;;;3.70;86.96
52693;BME280;68218;51.012;-1.648;2023-03-14T04:18:43;98728.03;;;3.80;87.47
52693;BME280;68218;51.012;-1.648;2023-03-14T04:21:08;98721.94;;;3.84;86.59
52693;BME280;68218;51.012;-1.648;2023-03-14T04:23:34;98726.50;;;3.94;86.61
52693;BME280;68218;51.012;-1.648;2023-03-14T04:25:59;98740.16;;;3.98;87.04
52693;BME280;68218;51.012;-1.648;2023-03-14T04:28:25;98734.88;;;4.03;85.77
52693;BME280;68218;51.012;-1.648;2023-03-14T04:30:50;98750.66;;;4.15;86.10
52693;BME280;68218;51.012;-1.648;2023-03-14T04:33:16;98756.31;;;4.18;86.23
52693;BME280;68218;51.012;-1.648;2023-03-14T04:35:43;98754.69;;;4.17;86.23
52693;BME280;68218;51.012;-1.648;2023-03-14T04:38:09;98755.78;;;4.21;86.79
52693;BME280;68218;51.012;-1.648;2023-03-14T04:40:41;98771.31;;;4.29;85.87
52693;BME280;68218;51.012;-1.648;2023-03-14T04:43:10;98776.66;;;4.29;86.01
52693;BME280;68218;51.012;-1.648;2023-03-14T04:45:36;98780.66;;;4.27;86.13
52693;BME280;68218;51.012;-1.648;2023-03-14T04:48:02;98783.06;;;4.28;86.86
52693;BME280;68218;51.012;-1.648;2023-03-14T04:50:27;98781.44;;;4.27;86.06
52693;BME280;68218;51.012;-1.648;2023-03-14T04:52:53;98785.47;;;4.35;86.94
52693;BME280;68218;51.012;-1.648;2023-03-14T04:55:18;98779.06;;;4.31;85.90
52693;BME280;68218;51.012;-1.648;2023-03-14T04:57:43;98792.69;;;4.35;86.03
52693;BME280;68218;51.012;-1.648;2023-03-14T05:00:09;98802.03;;;4.32;85.98
52693;BME280;68218;51.012;-1.648;2023-03-14T05:02:35;98804.97;;;4.36;85.51
52693;BME280;68218;51.012;-1.648;2023-03-14T05:05:00;98809.78;;;4.34;86.02
52693;BME280;68218;51.012;-1.648;2023-03-14T05:07:26;98807.38;;;4.32;85.35
52693;BME280;68218;51.012;-1.648;2023-03-14T05:09:51;98799.91;;;4.34;85.40
52693;BME280;68218;51.012;-1.648;2023-03-14T05:12:18;98811.09;;;4.31;83.96
52693;BME280;68218;51.012;-1.648;2023-03-14T05:14:44;98816.63;;;4.24;85.05
52693;BME280;68218;51.012;-1.648;2023-03-14T05:17:09;98824.81;;;4.12;85.09
52693;BME280;68218;51.012;-1.648;2023-03-14T05:19:35;98836.22;;;4.03;86.61
52693;BME280;68218;51.012;-1.648;2023-03-14T05:22:00;98843.13;;;3.99;85.66
52693;BME280;68218;51.012;-1.648;2023-03-14T05:24:26;98838.75;;;3.87;86.72
52693;BME280;68218;51.012;-1.648;2023-03-14T05:26:51;98840.09;;;3.90;86.57
52693;BME280;68218;51.012;-1.648;2023-03-14T05:29:17;98837.16;;;3.86;86.36
52693;BME280;68218;51.012;-1.648;2023-03-14T05:31:42;98847.28;;;3.84;86.58
52693;BME280;68218;51.012;-1.648;2023-03-14T05:34:08;98833.34;;;3.77;86.84
52693;BME280;68218;51.012;-1.648;2023-03-14T05:36:33;98826.38;;;3.76;85.84
52693;BME280;68218;51.012;-1.648;2023-03-14T05:38:58;98846.66;;;3.77;85.49
52693;BME280;68218;51.012;-1.648;2023-03-14T05:41:24;98862.63;;;3.72;85.94
52693;BME280;68218;51.012;-1.648;2023-03-14T05:43:49;98861.75;;;3.66;85.54
52693;BME280;68218;51.012;-1.648;2023-03-14T05:46:15;98877.50;;;3.68;85.39
52693;BME280;68218;51.012;-1.648;2023-03-14T05:48:40;98890.03;;;3.67;85.67
52693;BME280;68218;51.012;-1.648;2023-03-14T05:51:05;98889.53;;;3.70;85.02
52693;BME280;68218;51.012;-1.648;2023-03-14T05:53:31;98897.41;;;3.60;87.08
52693;BME280;68218;51.012;-1.648;2023-03-14T05:55:56;98901.31;;;3.52;85.71
52693;BME280;68218;51.012;-1.648;2023-03-14T05:58:22;98900.22;;;3.48;86.44
52693;BME280;68218;51.012;-1.648;2023-03-14T06:00:48;98906.53;;;3.42;87.04
52693;BME280;68218;51.012;-1.648;2023-03-14T06:03:13;98914.56;;;3.47;84.89
52693;BME280;68218;51.012;-1.648;2023-03-14T06:05:38;98919.28;;;3.40;86.44
52693;BME280;68218;51.012;-1.648;2023-03-14T06:08:04;98933.13;;;3.37;86.04
52693;BME280;68218;51.012;-1.648;2023-03-14T06:10:30;98928.50;;;3.32;86.06
52693;BME280;68218;51.012;-1.648;2023-03-14T06:12:55;98941.03;;;3.32;86.41
52693;BME280;68218;51.012;-1.648;2023-03-14T06:15:21;98945.31;;;3.33;85.29
52693;BME280;68218;51.012;-1.648;2023-03-14T06:17:46;98957.44;;;3.24;86.07
52693;BME280;68218;51.012;-1.648;2023-03-14T06:20:12;98955.09;;;3.27;85.87
52693;BME280;68218;51.012;-1.648;2023-03-14T06:22:39;98962.78;;;3.24;85.43
52693;BME280;68218;51.012;-1.648;2023-03-14T06:25:06;98960.09;;;3.24;85.47
52693;BME280;68218;51.012;-1.648;2023-03-14T06:27:31;98962.53;;;3.25;85.28
52693;BME280;68218;51.012;-1.648;2023-03-14T06:29:57;98969.56;;;3.31;84.67
52693;BME280;68218;51.012;-1.648;2023-03-14T06:32:22;98969.31;;;3.33;85.29
52693;BME280;68218;51.012;-1.648;2023-03-14T06:34:47;98983.75;;;3.37;85.58
52693;BME280;68218;51.012;-1.648;2023-03-14T06:37:13;98988.59;;;3.40;84.58
52693;BME280;68218;51.012;-1.648;2023-03-14T06:39:38;98997.19;;;3.47;85.24
52693;BME280;68218;51.012;-1.648;2023-03-14T06:42:04;99000.50;;;3.54;84.25
52693;BME280;68218;51.012;-1.648;2023-03-14T06:44:31;99005.63;;;3.61;84.34
52693;BME280;68218;51.012;-1.648;2023-03-14T06:46:57;99021.94;;;3.65;84.04
52693;BME280;68218;51.012;-1.648;2023-03-14T06:49:22;99024.38;;;3.66;84.66
52693;BME280;68218;51.012;-1.648;2023-03-14T06:51:48;99030.78;;;3.65;83.50
52693;BME280;68218;51.012;-1.648;2023-03-14T06:54:13;99033.44;;;3.65;84.13
52693;BME280;68218;51.012;-1.648;2023-03-14T06:56:38;99042.97;;;3.61;84.36
52693;BME280;68218;51.012;-1.648;2023-03-14T06:59:04;99047.00;;;3.64;84.66
52693;BME280;68218;51.012;-1.648;2023-03-14T07:01:30;99049.75;;;3.69;84.39
52693;BME280;68218;51.012;-1.648;2023-03-14T07:03:57;99051.91;;;3.72;84.45
52693;BME280;68218;51.012;-1.648;2023-03-14T07:06:23;99059.41;;;3.75;84.31
52693;BME280;68218;51.012;-1.648;2023-03-14T07:08:48;99055.22;;;3.79;84.21
52693;BME280;68218;51.012;-1.648;2023-03-14T07:11:14;99062.44;;;3.84;83.03
52693;BME280;68218;51.012;-1.648;2023-03-14T07:13:39;99078.34;;;3.96;82.80
52693;BME280;68218;51.012;-1.648;2023-03-14T07:16:06;99085.13;;;4.03;82.70
52693;BME280;68218;51.012;-1.648;2023-03-14T07:18:32;99090.03;;;4.11;83.33
52693;BME280;68218;51.012;-1.648;2023-03-14T07:20:57;99093.31;;;4.19;81.62
52693;BME280;68218;51.012;-1.648;2023-03-14T07:23:23;99098.47;;;4.25;79.96
52693;BME280;68218;51.012;-1.648;2023-03-14T07:25:48;99109.81;;;4.38;80.17
52693;BME280;68218;51.012;-1.648;2023-03-14T07:28:13;99113.13;;;4.50;80.28
52693;BME280;68218;51.012;-1.648;2023-03-14T07:30:39;99128.72;;;4.58;79.93
52693;BME280;68218;51.012;-1.648;2023-03-14T07:33:04;99132.00;;;4.65;78.81
52693;BME280;68218;51.012;-1.648;2023-03-14T07:35:30;99139.88;;;4.77;78.94
52693;BME280;68218;51.012;-1.648;2023-03-14T07:37:55;99134.56;;;4.82;78.43
52693;BME280;68218;51.012;-1.648;2023-03-14T07:40:20;99133.00;;;4.86;79.77
52693;BME280;68218;51.012;-1.648;2023-03-14T07:42:46;99144.50;;;4.87;78.84
52693;BME280;68218;51.012;-1.648;2023-03-14T07:45:12;99170.94;;;4.83;80.36
52693;BME280;68218;51.012;-1.648;2023-03-14T07:47:37;99170.72;;;4.90;80.65
52693;BME280;68218;51.012;-1.648;2023-03-14T07:50:04;99188.72;;;5.00;79.21
52693;BME280;68218;51.012;-1.648;2023-03-14T07:52:29;99186.63;;;5.07;79.96
52693;BME280;68218;51.012;-1.648;2023-03-14T07:54:55;99197.72;;;5.16;79.58
52693;BME280;68218;51.012;-1.648;2023-03-14T07:57:20;99205.34;;;5.34;80.20
52693;BME280;68218;51.012;-1.648;2023-03-14T07:59:46;99215.88;;;5.46;79.42
52693;BME280;68218;51.012;-1.648;2023-03-14T08:02:11;99219.63;;;5.45;80.17
52693;BME280;68218;51.012;-1.648;2023-03-14T08:04:38;99209.94;;;5.39;79.73
52693;BME280;68218;51.012;-1.648;2023-03-14T08:07:04;99220.25;;;5.57;80.34
52693;BME280;68218;51.012;-1.648;2023-03-14T08:09:29;99225.78;;;5.46;80.25
52693;BME280;68218;51.012;-1.648;2023-03-14T08:11:55;99234.38;;;5.53;80.20
52693;BME280;68218;51.012;-1.648;2023-03-14T08:14:20;99235.34;;;5.74;81.20
52693;BME280;68218;51.012;-1.648;2023-03-14T08:16:46;99252.88;;;5.87;79.73
52693;BME280;68218;51.012;-1.648;2023-03-14T08:19:11;99257.72;;;5.90;78.31
52693;BME280;68218;51.012;-1.648;2023-03-14T08:21:37;99262.69;;;5.76;76.80
52693;BME280;68218;51.012;-1.648;2023-03-14T08:24:02;99270.78;;;5.86;78.87
52693;BME280;68218;51.012;-1.648;2023-03-14T08:26:27;99271.47;;;5.71;79.12
52693;BME280;68218;51.012;-1.648;2023-03-14T08:28:53;99281.03;;;5.67;78.25
52693;BME280;68218;51.012;-1.648;2023-03-14T08:31:18;99282.66;;;5.68;78.52
52693;BME280;68218;51.012;-1.648;2023-03-14T08:33:44;99304.31;;;5.67;79.83
52693;BME280;68218;51.012;-1.648;2023-03-14T08:36:09;99310.75;;;5.66;78.76
52693;BME280;68218;51.012;-1.648;2023-03-14T08:38:35;99317.41;;;5.63;78.92
52693;BME280;68218;51.012;-1.648;2023-03-14T08:41:01;99321.84;;;5.79;80.47
52693;BME280;68218;51.012;-1.648;2023-03-14T08:43:28;99329.78;;;5.69;76.87
52693;BME280;68218;51.012;-1.648;2023-03-14T08:45:57;99336.91;;;5.63;76.28
52693;BME280;68218;51.012;-1.648;2023-03-14T08:48:23;99348.16;;;5.38;73.66
52693;BME280;68218;51.012;-1.648;2023-03-14T08:50:48;99361.53;;;5.38;74.71
52693;BME280;68218;51.012;-1.648;2023-03-14T08:53:14;99366.94;;;5.43;74.75
52693;BME280;68218;51.012;-1.648;2023-03-14T08:55:39;99379.47;;;5.43;76.33
52693;BME280;68218;51.012;-1.648;2023-03-14T08:58:04;99386.09;;;5.35;73.49
52693;BME280;68218;51.012;-1.648;2023-03-14T09:00:30;99397.91;;;5.39;73.42
52693;BME280;68218;51.012;-1.648;2023-03-14T09:02:55;99404.06;;;5.40;74.59
52693;BME280;68218;51.012;-1.648;2023-03-14T09:05:20;99415.69;;;5.51;74.74
52693;BME280;68218;51.012;-1.648;2023-03-14T09:07:46;99414.19;;;5.60;74.70
52693;BME280;68218;51.012;-1.648;2023-03-14T09:10:11;99423.78;;;5.56;74.09
52693;BME280;68218;51.012;-1.648;2023-03-14T09:12:36;99437.69;;;5.58;75.36
52693;BME280;68218;51.012;-1.648;2023-03-14T09:15:02;99436.47;;;5.43;73.19
52693;BME280;68218;51.012;-1.648;2023-03-14T09:17:28;99454.03;;;5.39;72.50
52693;BME280;68218;51.012;-1.648;2023-03-14T09:19:53;99447.47;;;5.47;72.34
52693;BME280;68218;51.012;-1.648;2023-03-14T09:22:19;99468.91;;;5.30;70.57
52693;BME280;68218;51.012;-1.648;2023-03-14T09:24:45;99467.91;;;5.36;71.28
52693;BME280;68218;51.012;-1.648;2023-03-14T09:27:11;99474.88;;;5.37;71.52
52693;BME280;68218;51.012;-1.648;2023-03-14T09:29:37;99479.31;;;5.49;73.69
52693;BME280;68218;51.012;-1.648;2023-03-14T09:32:02;99490.13;;;5.37;71.45
52693;BME280;68218;51.012;-1.648;2023-03-14T09:34:28;99489.00;;;5.77;69.56
52693;BME280;68218;51.012;-1.648;2023-03-14T09:36:53;99494.41;;;6.53;73.66
52693;BME280;68218;51.012;-1.648;2023-03-14T09:39:19;99502.75;;;6.89;72.57
52693;BME280;68218;51.012;-1.648;2023-03-14T09:41:48;99519.34;;;6.86;71.10
52693;BME280;68218;51.012;-1.648;2023-03-14T09:44:29;99520.84;;;7.04;70.97
52693;BME280;68218;51.012;-1.648;2023-03-14T09:46:58;99528.31;;;7.45;69.22
52693;BME280;68218;51.012;-1.648;2023-03-14T09:49:31;99545.41;;;6.64;69.29
52693;BME280;68218;51.012;-1.648;2023-03-14T09:51:59;99559.78;;;6.30;73.62
52693;BME280;68218;51.012;-1.648;2023-03-14T09:54:34;99599.84;;;5.81;74.06
52693;BME280;68218;51.012;-1.648;2023-03-14T09:57:02;99624.53;;;4.86;79.36
52693;BME280;68218;51.012;-1.648;2023-03-14T09:59:28;99600.00;;;4.73;81.69
52693;BME280;68218;51.012;-1.648;2023-03-14T10:01:58;99599.69;;;4.86;84.05
52693;BME280;68218;51.012;-1.648;2023-03-14T10:04:25;99606.94;;;5.02;84.73
52693;BME280;68218;51.012;-1.648;2023-03-14T10:06:50;99604.44;;;5.13;84.86
52693;BME280;68218;51.012;-1.648;2023-03-14T10:09:21;99616.72;;;4.97;83.39
52693;BME280;68218;51.012;-1.648;2023-03-14T10:11:55;99627.56;;;5.07;82.18
52693;BME280;68218;51.012;-1.648;2023-03-14T10:14:33;99639.09;;;5.75;84.36
52693;BME280;68218;51.012;-1.648;2023-03-14T10:17:11;99643.53;;;5.87;80.46
52693;BME280;68218;51.012;-1.648;2023-03-14T10:19:37;99650.53;;;5.37;80.56
52693;BME280;68218;51.012;-1.648;2023-03-14T10:22:04;99659.38;;;5.37;82.53
52693;BME280;68218;51.012;-1.648;2023-03-14T10:24:34;99668.69;;;5.35;82.70
52693;BME280;68218;51.012;-1.648;2023-03-14T10:27:08;99670.16;;;5.42;81.95
52693;BME280;68218;51.012;-1.648;2023-03-14T10:29:55;99664.00;;;5.42;79.44
52693;BME280;68218;51.012;-1.648;2023-03-14T10:32:28;99680.69;;;5.49;78.32
52693;BME280;68218;51.012;-1.648;2023-03-14T10:37:48;99698.03;;;5.97;76.87
52693;BME280;68218;51.012;-1.648;2023-03-14T10:40:17;99693.69;;;6.52;74.22
52693;BME280;68218;51.012;-1.648;2023-03-14T10:42:43;99706.06;;;7.03;73.78
52693;BME280;68218;51.012;-1.648;2023-03-14T10:45:29;99717.25;;;6.50;72.46
52693;BME280;68218;51.012;-1.648;2023-03-14T10:51:05;99738.75;;;5.66;74.99
52693;BME280;68218;51.012;-1.648;2023-03-14T10:53:56;99746.13;;;6.26;72.46
52693;BME280;68218;51.012;-1.648;2023-03-14T10:56:23;99763.31;;;5.79;72.16
52693;BME280;68218;51.012;-1.648;2023-03-14T10:58:51;99773.09;;;5.74;73.97
52693;BME280;68218;51.012;-1.648;2023-03-14T11:06:56;99789.50;;;6.45;68.84
52693;BME280;68218;51.012;-1.648;2023-03-14T11:12:03;99801.31;;;6.27;70.06
52693;BME280;68218;51.012;-1.648;2023-03-14T11:14:38;99799.59;;;6.99;66.46
52693;BME280;68218;51.012;-1.648;2023-03-14T11:17:27;99810.94;;;7.06;68.40
52693;BME280;68218;51.012;-1.648;2023-03-14T11:20:04;99821.66;;;7.06;68.48
52693;BME280;68218;51.012;-1.648;2023-03-14T11:28:50;99846.19;;;5.91;70.46
52693;BME280;68218;51.012;-1.648;2023-03-14T11:30:55;99851.19;;;6.50;69.56
52693;BME280;68218;51.012;-1.648;2023-03-14T11:33:29;99855.13;;;7.04;68.15
52693;BME280;68218;51.012;-1.648;2023-03-14T11:36:11;99845.91;;;6.94;66.45
52693;BME280;68218;51.012;-1.648;2023-03-14T11:38:42;99858.06;;;7.02;64.94
52693;BME280;68218;51.012;-1.648;2023-03-14T11:41:18;99857.56;;;7.05;66.00
52693;BME280;68218;51.012;-1.648;2023-03-14T11:43:51;99867.59;;;6.93;66.09
52693;BME280;68218;51.012;-1.648;2023-03-14T11:46:29;99869.47;;;6.92;66.97
52693;BME280;68218;51.012;-1.648;2023-03-14T11:49:02;99873.00;;;7.37;62.49
52693;BME280;68218;51.012;-1.648;2023-03-14T11:51:35;99873.63;;;8.26;62.37
52693;BME280;68218;51.012;-1.648;2023-03-14T11:54:39;99878.78;;;8.70;61.06
52693;BME280;68218;51.012;-1.648;2023-03-14T11:57:17;99896.47;;;8.01;61.12
52693;BME280;68218;51.012;-1.648;2023-03-14T12:08:44;99903.22;;;9.06;60.96
52693;BME280;68218;51.012;-1.648;2023-03-14T12:13:40;99902.84;;;9.40;59.44
52693;BME280;68218;51.012;-1.648;2023-03-14T12:18:50;99904.97;;;10.42;56.22
52693;BME280;68218;51.012;-1.648;2023-03-14T12:21:17;99912.69;;;9.87;62.62
52693;BME280;68218;51.012;-1.648;2023-03-14T12:23:54;99908.47;;;10.33;59.05
52693;BME280;68218;51.012;-1.648;2023-03-14T12:26:23;99919.75;;;10.14;57.12
52693;BME280;68218;51.012;-1.648;2023-03-14T12:32:05;99936.00;;;8.60;58.30
52693;BME280;68218;51.012;-1.648;2023-03-14T12:34:42;99934.69;;;8.09;57.84
52693;BME280;68218;51.012;-1.648;2023-03-14T12:45:29;99943.97;;;10.04;55.04
52693;BME280;68218;51.012;-1.648;2023-03-14T12:48:22;99942.75;;;9.59;54.25
52693;BME280;68218;51.012;-1.648;2023-03-14T12:53:43;99948.78;;;8.21;57.33
52693;BME280;68218;51.012;-1.648;2023-03-14T12:58:47;99940.25;;;8.94;52.29
52693;BME280;68218;51.012;-1.648;2023-03-14T13:01:20;99950.72;;;9.33;53.70
52693;BME280;68218;51.012;-1.648;2023-03-14T13:03:55;99949.22;;;9.57;54.36
52693;BME280;68218;51.012;-1.648;2023-03-14T13:06:53;99945.84;;;9.93;50.57
52693;BME280;68218;51.012;-1.648;2023-03-14T13:14:29;99945.34;;;9.33;56.88
52693;BME280;68218;51.012;-1.648;2023-03-14T13:16:59;99948.94;;;10.53;55.60
52693;BME280;68218;51.012;-1.648;2023-03-14T13:19:29;99947.84;;;10.49;51.06
52693;BME280;68218;51.012;-1.648;2023-03-14T13:22:02;99951.06;;;9.47;52.02
52693;BME280;68218;51.012;-1.648;2023-03-14T13:24:28;99960.22;;;9.51;52.79
52693;BME280;68218;51.012;-1.648;2023-03-14T13:26:56;99956.59;;;9.83;54.11
52693;BME280;68218;51.012;-1.648;2023-03-14T13:29:30;99947.84;;;10.90;54.58
52693;BME280;68218;51.012;-1.648;2023-03-14T13:31:59;99962.41;;;10.68;51.90
52693;BME280;68218;51.012;-1.648;2023-03-14T13:34:28;99965.53;;;10.09;49.23
52693;BME280;68218;51.012;-1.648;2023-03-14T13:36:54;99958.66;;;10.54;52.45
52693;BME280;68218;51.012;-1.648;2023-03-14T13:39:22;99971.19;;;11.46;51.65
52693;BME280;68218;51.012;-1.648;2023-03-14T13:41:50;99967.66;;;11.51;53.64
52693;BME280;68218;51.012;-1.648;2023-03-14T13:44:22;99974.00;;;10.69;51.76
52693;BME280;68218;51.012;-1.648;2023-03-14T13:46:49;99978.84;;;10.77;48.78
52693;BME280;68218;51.012;-1.648;2023-03-14T13:49:22;99979.06;;;11.22;52.07
52693;BME280;68218;51.012;-1.648;2023-03-14T13:51:49;99988.00;;;11.22;50.44
52693;BME280;68218;51.012;-1.648;2023-03-14T13:54:16;99985.34;;;10.56;49.08
52693;BME280;68218;51.012;-1.648;2023-03-14T13:56:42;99990.44;;;10.88;49.95
52693;BME280;68218;51.012;-1.648;2023-03-14T13:59:28;99988.81;;;10.46;52.62
52693;BME280;68218;51.012;-1.648;2023-03-14T14:01:56;99998.53;;;10.57;51.53
52693;BME280;68218;51.012;-1.648;2023-03-14T14:04:25;100001.25;;;10.83;46.51
52693;BME280;68218;51.012;-1.648;2023-03-14T14:07:07;100004.91;;;11.59;48.96
52693;BME280;68218;51.012;-1.648;2023-03-14T14:09:39;100009.59;;;12.13;48.47